Calatayud, Spain
Current Conditions -  °F | °C
As of 8:00 PM on Monday 22 Dec 2014 (Local Time) from LEZG Reporting Station
Moderate Fog Moderate Fog  
Wind Chill: 37°   Ceiling: 100
Heat Index: 37°   Visibility: 0.18mi
Dew Point: 37°   Wind: 1mph
Humidity: 100%   Direction: NA
Pressure: 30.48"   Gusts: NA
Location:  41.35°N, 1.65°W
Report Text: LEZG 221900Z VRB01KT 0300 R30R/0700N R12R/1100D R30L/0800N FG VV001 03/03 Q1032
Loading
Personal Weather Stations






























Interactive Weather Map New forecast layout! Learn more

10-Day Weather Forecast

Advertisements
Track Severe Weather on mobile